sensor_id;sensor_type;location;lat;lon;timestamp;P1;durP1;ratioP1;P2;durP2;ratioP2
22248;SDS011;67538;52.180;5.646;2024-02-21T00:00:19;20.47;;;9.00;;
22248;SDS011;67538;52.180;5.646;2024-02-21T00:02:46;20.37;;;8.53;;
22248;SDS011;67538;52.180;5.646;2024-02-21T00:05:13;22.93;;;9.27;;
22248;SDS011;67538;52.180;5.646;2024-02-21T00:07:42;27.80;;;8.67;;
22248;SDS011;67538;52.180;5.646;2024-02-21T00:10:09;27.53;;;9.70;;
22248;SDS011;67538;52.180;5.646;2024-02-21T00:12:36;25.60;;;8.83;;
22248;SDS011;67538;52.180;5.646;2024-02-21T00:15:03;22.60;;;8.27;;
22248;SDS011;67538;52.180;5.646;2024-02-21T00:17:31;27.10;;;9.17;;
22248;SDS011;67538;52.180;5.646;2024-02-21T00:19:58;26.67;;;8.10;;
22248;SDS011;67538;52.180;5.646;2024-02-21T00:22:25;18.27;;;8.87;;
22248;SDS011;67538;52.180;5.646;2024-02-21T00:24:55;26.17;;;8.63;;
22248;SDS011;67538;52.180;5.646;2024-02-21T00:27:23;24.10;;;8.77;;
22248;SDS011;67538;52.180;5.646;2024-02-21T00:29:50;23.47;;;9.07;;
22248;SDS011;67538;52.180;5.646;2024-02-21T00:32:17;31.90;;;8.73;;
22248;SDS011;67538;52.180;5.646;2024-02-21T00:34:44;19.83;;;8.90;;
22248;SDS011;67538;52.180;5.646;2024-02-21T00:37:11;26.83;;;8.93;;
22248;SDS011;67538;52.180;5.646;2024-02-21T00:39:38;32.70;;;8.77;;
22248;SDS011;67538;52.180;5.646;2024-02-21T00:42:09;25.83;;;8.83;;
22248;SDS011;67538;52.180;5.646;2024-02-21T00:44:36;15.63;;;8.17;;
22248;SDS011;67538;52.180;5.646;2024-02-21T00:47:03;21.23;;;8.00;;
22248;SDS011;67538;52.180;5.646;2024-02-21T00:49:30;20.93;;;7.90;;
22248;SDS011;67538;52.180;5.646;2024-02-21T00:51:57;26.63;;;7.97;;
22248;SDS011;67538;52.180;5.646;2024-02-21T00:54:24;28.73;;;8.10;;
22248;SDS011;67538;52.180;5.646;2024-02-21T00:56:51;23.80;;;7.97;;
22248;SDS011;67538;52.180;5.646;2024-02-21T00:59:19;20.03;;;7.90;;
22248;SDS011;67538;52.180;5.646;2024-02-21T01:01:46;27.97;;;8.07;;
22248;SDS011;67538;52.180;5.646;2024-02-21T01:04:13;23.13;;;8.00;;
22248;SDS011;67538;52.180;5.646;2024-02-21T01:06:40;23.13;;;7.90;;
22248;SDS011;67538;52.180;5.646;2024-02-21T01:09:09;23.00;;;7.37;;
22248;SDS011;67538;52.180;5.646;2024-02-21T01:11:36;28.10;;;7.80;;
22248;SDS011;67538;52.180;5.646;2024-02-21T01:14:03;19.43;;;7.23;;
22248;SDS011;67538;52.180;5.646;2024-02-21T01:16:31;25.90;;;8.37;;
22248;SDS011;67538;52.180;5.646;2024-02-21T01:18:58;25.00;;;7.00;;
22248;SDS011;67538;52.180;5.646;2024-02-21T01:21:25;22.10;;;7.90;;
22248;SDS011;67538;52.180;5.646;2024-02-21T01:23:53;26.50;;;8.30;;
22248;SDS011;67538;52.180;5.646;2024-02-21T01:26:20;17.10;;;7.30;;
22248;SDS011;67538;52.180;5.646;2024-02-21T01:28:47;17.80;;;7.17;;
22248;SDS011;67538;52.180;5.646;2024-02-21T01:31:14;26.00;;;7.80;;
22248;SDS011;67538;52.180;5.646;2024-02-21T01:33:42;27.53;;;7.87;;
22248;SDS011;67538;52.180;5.646;2024-02-21T01:36:09;28.67;;;7.33;;
22248;SDS011;67538;52.180;5.646;2024-02-21T01:38:36;19.57;;;7.60;;
22248;SDS011;67538;52.180;5.646;2024-02-21T01:41:03;16.37;;;8.23;;
22248;SDS011;67538;52.180;5.646;2024-02-21T01:43:31;18.80;;;7.20;;
22248;SDS011;67538;52.180;5.646;2024-02-21T01:45:58;26.07;;;9.20;;
22248;SDS011;67538;52.180;5.646;2024-02-21T01:48:25;28.73;;;9.57;;
22248;SDS011;67538;52.180;5.646;2024-02-21T01:50:54;21.27;;;7.67;;
22248;SDS011;67538;52.180;5.646;2024-02-21T01:53:22;30.67;;;8.57;;
22248;SDS011;67538;52.180;5.646;2024-02-21T01:55:50;24.83;;;8.73;;
22248;SDS011;67538;52.180;5.646;2024-02-21T01:58:18;26.70;;;8.47;;
22248;SDS011;67538;52.180;5.646;2024-02-21T02:00:46;26.07;;;9.50;;
22248;SDS011;67538;52.180;5.646;2024-02-21T02:03:14;21.77;;;8.50;;
22248;SDS011;67538;52.180;5.646;2024-02-21T02:05:42;26.50;;;10.03;;
22248;SDS011;67538;52.180;5.646;2024-02-21T02:08:12;22.17;;;9.70;;
22248;SDS011;67538;52.180;5.646;2024-02-21T02:10:40;26.33;;;10.03;;
22248;SDS011;67538;52.180;5.646;2024-02-21T02:13:08;27.13;;;10.73;;
22248;SDS011;67538;52.180;5.646;2024-02-21T02:15:39;29.33;;;10.27;;
22248;SDS011;67538;52.180;5.646;2024-02-21T02:18:06;23.17;;;9.97;;
22248;SDS011;67538;52.180;5.646;2024-02-21T02:20:33;19.67;;;10.53;;
22248;SDS011;67538;52.180;5.646;2024-02-21T02:23:02;24.27;;;10.17;;
22248;SDS011;67538;52.180;5.646;2024-02-21T02:25:35;25.83;;;10.73;;
22248;SDS011;67538;52.180;5.646;2024-02-21T02:28:02;24.93;;;10.37;;
22248;SDS011;67538;52.180;5.646;2024-02-21T02:30:31;29.27;;;9.63;;
22248;SDS011;67538;52.180;5.646;2024-02-21T02:32:59;28.03;;;10.20;;
22248;SDS011;67538;52.180;5.646;2024-02-21T02:35:26;35.43;;;11.10;;
22248;SDS011;67538;52.180;5.646;2024-02-21T02:37:53;24.80;;;10.20;;
22248;SDS011;67538;52.180;5.646;2024-02-21T02:40:21;26.60;;;10.67;;
22248;SDS011;67538;52.180;5.646;2024-02-21T02:42:49;34.37;;;10.37;;
22248;SDS011;67538;52.180;5.646;2024-02-21T02:45:20;22.97;;;10.10;;
22248;SDS011;67538;52.180;5.646;2024-02-21T02:47:48;32.90;;;12.10;;
22248;SDS011;67538;52.180;5.646;2024-02-21T02:50:15;22.10;;;10.30;;
22248;SDS011;67538;52.180;5.646;2024-02-21T02:52:42;26.47;;;10.77;;
22248;SDS011;67538;52.180;5.646;2024-02-21T02:55:09;27.40;;;10.83;;
22248;SDS011;67538;52.180;5.646;2024-02-21T02:57:36;28.37;;;10.77;;
22248;SDS011;67538;52.180;5.646;2024-02-21T03:00:05;28.33;;;11.27;;
22248;SDS011;67538;52.180;5.646;2024-02-21T03:02:34;27.87;;;11.47;;
22248;SDS011;67538;52.180;5.646;2024-02-21T03:05:01;37.43;;;11.40;;
22248;SDS011;67538;52.180;5.646;2024-02-21T03:07:38;21.80;;;10.30;;
22248;SDS011;67538;52.180;5.646;2024-02-21T03:10:06;25.87;;;11.90;;
22248;SDS011;67538;52.180;5.646;2024-02-21T03:12:33;29.77;;;11.33;;
22248;SDS011;67538;52.180;5.646;2024-02-21T03:15:00;29.97;;;11.87;;
22248;SDS011;67538;52.180;5.646;2024-02-21T03:17:29;25.57;;;10.37;;
22248;SDS011;67538;52.180;5.646;2024-02-21T03:19:56;27.57;;;10.23;;
22248;SDS011;67538;52.180;5.646;2024-02-21T03:22:25;29.97;;;10.10;;
22248;SDS011;67538;52.180;5.646;2024-02-21T03:24:53;25.23;;;10.70;;
22248;SDS011;67538;52.180;5.646;2024-02-21T03:27:20;25.67;;;10.07;;
22248;SDS011;67538;52.180;5.646;2024-02-21T03:29:47;24.13;;;10.33;;
22248;SDS011;67538;52.180;5.646;2024-02-21T03:32:14;27.40;;;10.20;;
22248;SDS011;67538;52.180;5.646;2024-02-21T03:34:42;26.50;;;10.20;;
22248;SDS011;67538;52.180;5.646;2024-02-21T03:37:09;33.37;;;10.47;;
22248;SDS011;67538;52.180;5.646;2024-02-21T03:39:38;29.43;;;10.90;;
22248;SDS011;67538;52.180;5.646;2024-02-21T03:42:06;34.40;;;10.87;;
22248;SDS011;67538;52.180;5.646;2024-02-21T03:44:34;29.27;;;10.93;;
22248;SDS011;67538;52.180;5.646;2024-02-21T03:47:01;37.17;;;10.03;;
22248;SDS011;67538;52.180;5.646;2024-02-21T03:49:28;27.77;;;10.37;;
22248;SDS011;67538;52.180;5.646;2024-02-21T03:51:57;22.43;;;10.57;;
22248;SDS011;67538;52.180;5.646;2024-02-21T03:54:24;22.97;;;10.60;;
22248;SDS011;67538;52.180;5.646;2024-02-21T03:56:51;22.80;;;11.17;;
22248;SDS011;67538;52.180;5.646;2024-02-21T03:59:18;28.00;;;11.40;;
22248;SDS011;67538;52.180;5.646;2024-02-21T04:01:45;26.77;;;11.47;;
22248;SDS011;67538;52.180;5.646;2024-02-21T04:04:12;30.33;;;11.50;;
22248;SDS011;67538;52.180;5.646;2024-02-21T04:06:45;27.57;;;11.83;;
22248;SDS011;67538;52.180;5.646;2024-02-21T04:09:14;29.27;;;10.90;;
22248;SDS011;67538;52.180;5.646;2024-02-21T04:11:41;28.00;;;11.10;;
22248;SDS011;67538;52.180;5.646;2024-02-21T04:14:09;30.23;;;10.50;;
22248;SDS011;67538;52.180;5.646;2024-02-21T04:16:37;28.60;;;10.27;;
22248;SDS011;67538;52.180;5.646;2024-02-21T04:19:04;28.30;;;10.63;;
22248;SDS011;67538;52.180;5.646;2024-02-21T04:21:31;30.20;;;10.17;;
22248;SDS011;67538;52.180;5.646;2024-02-21T04:23:58;28.07;;;10.87;;
22248;SDS011;67538;52.180;5.646;2024-02-21T04:26:28;25.03;;;11.70;;
22248;SDS011;67538;52.180;5.646;2024-02-21T04:28:55;30.00;;;10.23;;
22248;SDS011;67538;52.180;5.646;2024-02-21T04:31:22;27.50;;;11.30;;
22248;SDS011;67538;52.180;5.646;2024-02-21T04:33:49;22.53;;;11.87;;
22248;SDS011;67538;52.180;5.646;2024-02-21T04:36:17;31.20;;;10.43;;
22248;SDS011;67538;52.180;5.646;2024-02-21T04:38:45;24.47;;;10.70;;
22248;SDS011;67538;52.180;5.646;2024-02-21T04:41:12;26.67;;;10.50;;
22248;SDS011;67538;52.180;5.646;2024-02-21T04:43:40;27.43;;;10.40;;
22248;SDS011;67538;52.180;5.646;2024-02-21T04:46:07;26.20;;;10.07;;
22248;SDS011;67538;52.180;5.646;2024-02-21T04:48:35;18.53;;;10.80;;
22248;SDS011;67538;52.180;5.646;2024-02-21T04:51:02;26.57;;;10.13;;
22248;SDS011;67538;52.180;5.646;2024-02-21T04:53:29;33.60;;;11.10;;
22248;SDS011;67538;52.180;5.646;2024-02-21T04:55:56;25.00;;;10.37;;
22248;SDS011;67538;52.180;5.646;2024-02-21T04:58:23;26.37;;;11.00;;
22248;SDS011;67538;52.180;5.646;2024-02-21T05:00:52;23.23;;;10.40;;
22248;SDS011;67538;52.180;5.646;2024-02-21T05:03:20;24.67;;;10.40;;
22248;SDS011;67538;52.180;5.646;2024-02-21T05:05:47;25.33;;;11.03;;
22248;SDS011;67538;52.180;5.646;2024-02-21T05:08:15;19.43;;;10.10;;
22248;SDS011;67538;52.180;5.646;2024-02-21T05:10:42;27.70;;;10.63;;
22248;SDS011;67538;52.180;5.646;2024-02-21T05:13:09;29.80;;;10.50;;
22248;SDS011;67538;52.180;5.646;2024-02-21T05:15:36;27.20;;;10.67;;
22248;SDS011;67538;52.180;5.646;2024-02-21T05:18:05;22.87;;;10.17;;
22248;SDS011;67538;52.180;5.646;2024-02-21T05:20:32;26.00;;;10.17;;
22248;SDS011;67538;52.180;5.646;2024-02-21T05:22:59;21.63;;;10.13;;
22248;SDS011;67538;52.180;5.646;2024-02-21T05:25:26;21.43;;;10.13;;
22248;SDS011;67538;52.180;5.646;2024-02-21T05:27:53;27.67;;;11.00;;
22248;SDS011;67538;52.180;5.646;2024-02-21T05:30:21;20.30;;;9.70;;
22248;SDS011;67538;52.180;5.646;2024-02-21T05:32:48;22.87;;;9.77;;
22248;SDS011;67538;52.180;5.646;2024-02-21T05:35:16;27.40;;;10.70;;
22248;SDS011;67538;52.180;5.646;2024-02-21T05:37:43;21.60;;;10.40;;
22248;SDS011;67538;52.180;5.646;2024-02-21T05:40:12;18.53;;;9.40;;
22248;SDS011;67538;52.180;5.646;2024-02-21T05:42:39;22.70;;;10.93;;
22248;SDS011;67538;52.180;5.646;2024-02-21T05:45:06;22.70;;;11.00;;
22248;SDS011;67538;52.180;5.646;2024-02-21T05:47:34;24.70;;;11.67;;
22248;SDS011;67538;52.180;5.646;2024-02-21T05:50:01;19.77;;;11.77;;
22248;SDS011;67538;52.180;5.646;2024-02-21T05:52:30;29.87;;;12.07;;
22248;SDS011;67538;52.180;5.646;2024-02-21T05:54:57;21.40;;;12.27;;
22248;SDS011;67538;52.180;5.646;2024-02-21T05:57:24;19.70;;;11.80;;
22248;SDS011;67538;52.180;5.646;2024-02-21T05:59:51;23.37;;;11.30;;
22248;SDS011;67538;52.180;5.646;2024-02-21T06:02:18;28.00;;;11.03;;
22248;SDS011;67538;52.180;5.646;2024-02-21T06:04:46;26.20;;;11.70;;
22248;SDS011;67538;52.180;5.646;2024-02-21T06:07:13;28.13;;;11.93;;
22248;SDS011;67538;52.180;5.646;2024-02-21T06:09:42;30.67;;;12.40;;
22248;SDS011;67538;52.180;5.646;2024-02-21T06:12:09;20.93;;;11.83;;
22248;SDS011;67538;52.180;5.646;2024-02-21T06:14:36;26.23;;;13.50;;
22248;SDS011;67538;52.180;5.646;2024-02-21T06:17:03;24.97;;;12.83;;
22248;SDS011;67538;52.180;5.646;2024-02-21T06:19:30;26.47;;;12.90;;
22248;SDS011;67538;52.180;5.646;2024-02-21T06:21:57;31.80;;;12.67;;
22248;SDS011;67538;52.180;5.646;2024-02-21T06:24:24;30.73;;;14.00;;
22248;SDS011;67538;52.180;5.646;2024-02-21T06:26:52;30.00;;;13.57;;
22248;SDS011;67538;52.180;5.646;2024-02-21T06:29:19;26.43;;;12.33;;
22248;SDS011;67538;52.180;5.646;2024-02-21T06:31:46;32.57;;;15.07;;
22248;SDS011;67538;52.180;5.646;2024-02-21T06:34:13;31.60;;;14.93;;
22248;SDS011;67538;52.180;5.646;2024-02-21T06:36:40;28.53;;;14.37;;
22248;SDS011;67538;52.180;5.646;2024-02-21T06:39:07;35.13;;;15.77;;
22248;SDS011;67538;52.180;5.646;2024-02-21T06:41:36;32.07;;;15.97;;
22248;SDS011;67538;52.180;5.646;2024-02-21T06:44:04;32.00;;;16.57;;
22248;SDS011;67538;52.180;5.646;2024-02-21T06:46:31;39.10;;;18.17;;
22248;SDS011;67538;52.180;5.646;2024-02-21T06:48:59;41.20;;;18.13;;
22248;SDS011;67538;52.180;5.646;2024-02-21T06:51:27;47.43;;;18.57;;
22248;SDS011;67538;52.180;5.646;2024-02-21T06:53:54;38.30;;;18.80;;
22248;SDS011;67538;52.180;5.646;2024-02-21T06:56:23;40.10;;;18.63;;
22248;SDS011;67538;52.180;5.646;2024-02-21T06:58:53;43.53;;;20.37;;
22248;SDS011;67538;52.180;5.646;2024-02-21T07:01:22;48.00;;;20.67;;
22248;SDS011;67538;52.180;5.646;2024-02-21T07:03:49;43.47;;;20.70;;
22248;SDS011;67538;52.180;5.646;2024-02-21T07:06:16;44.40;;;21.30;;
22248;SDS011;67538;52.180;5.646;2024-02-21T07:08:43;44.07;;;19.77;;
22248;SDS011;67538;52.180;5.646;2024-02-21T07:11:10;47.17;;;19.40;;
22248;SDS011;67538;52.180;5.646;2024-02-21T07:13:37;41.03;;;18.67;;
22248;SDS011;67538;52.180;5.646;2024-02-21T07:16:05;45.43;;;19.93;;
22248;SDS011;67538;52.180;5.646;2024-02-21T07:18:34;44.87;;;18.47;;
22248;SDS011;67538;52.180;5.646;2024-02-21T07:21:01;42.37;;;19.33;;
22248;SDS011;67538;52.180;5.646;2024-02-21T07:23:28;45.27;;;17.67;;
22248;SDS011;67538;52.180;5.646;2024-02-21T07:25:55;40.87;;;17.93;;
22248;SDS011;67538;52.180;5.646;2024-02-21T07:28:22;38.63;;;17.53;;
22248;SDS011;67538;52.180;5.646;2024-02-21T07:30:49;38.73;;;17.87;;
22248;SDS011;67538;52.180;5.646;2024-02-21T07:33:16;35.90;;;16.10;;
22248;SDS011;67538;52.180;5.646;2024-02-21T07:35:44;30.77;;;15.60;;
22248;SDS011;67538;52.180;5.646;2024-02-21T07:38:11;41.07;;;16.27;;
22248;SDS011;67538;52.180;5.646;2024-02-21T07:40:39;43.50;;;15.50;;
22248;SDS011;67538;52.180;5.646;2024-02-21T07:43:06;35.43;;;15.40;;
22248;SDS011;67538;52.180;5.646;2024-02-21T07:45:33;34.57;;;15.00;;
22248;SDS011;67538;52.180;5.646;2024-02-21T07:48:00;33.27;;;14.13;;
22248;SDS011;67538;52.180;5.646;2024-02-21T07:50:27;31.47;;;14.83;;
22248;SDS011;67538;52.180;5.646;2024-02-21T07:52:57;35.83;;;14.60;;
22248;SDS011;67538;52.180;5.646;2024-02-21T07:55:24;32.63;;;13.67;;
22248;SDS011;67538;52.180;5.646;2024-02-21T07:57:51;39.20;;;14.70;;
22248;SDS011;67538;52.180;5.646;2024-02-21T08:00:19;30.77;;;14.30;;
22248;SDS011;67538;52.180;5.646;2024-02-21T08:02:47;33.07;;;14.00;;
22248;SDS011;67538;52.180;5.646;2024-02-21T08:05:14;29.83;;;14.17;;
22248;SDS011;67538;52.180;5.646;2024-02-21T08:07:42;30.47;;;13.20;;
22248;SDS011;67538;52.180;5.646;2024-02-21T08:10:10;28.33;;;11.90;;
22248;SDS011;67538;52.180;5.646;2024-02-21T08:12:38;37.47;;;13.87;;
22248;SDS011;67538;52.180;5.646;2024-02-21T08:15:05;25.83;;;12.87;;
22248;SDS011;67538;52.180;5.646;2024-02-21T08:17:35;33.10;;;12.37;;
22248;SDS011;67538;52.180;5.646;2024-02-21T08:20:03;31.43;;;13.00;;
22248;SDS011;67538;52.180;5.646;2024-02-21T08:22:30;27.30;;;12.67;;
22248;SDS011;67538;52.180;5.646;2024-02-21T08:24:58;27.83;;;12.87;;
22248;SDS011;67538;52.180;5.646;2024-02-21T08:27:26;28.73;;;12.20;;
22248;SDS011;67538;52.180;5.646;2024-02-21T08:29:53;29.20;;;12.40;;
22248;SDS011;67538;52.180;5.646;2024-02-21T08:32:20;37.43;;;13.37;;
22248;SDS011;67538;52.180;5.646;2024-02-21T08:34:47;24.07;;;12.27;;
22248;SDS011;67538;52.180;5.646;2024-02-21T08:37:15;35.23;;;13.47;;
22248;SDS011;67538;52.180;5.646;2024-02-21T08:39:42;32.90;;;12.37;;
22248;SDS011;67538;52.180;5.646;2024-02-21T08:42:09;30.03;;;13.33;;
22248;SDS011;67538;52.180;5.646;2024-02-21T08:44:37;28.43;;;12.97;;
22248;SDS011;67538;52.180;5.646;2024-02-21T08:47:06;31.67;;;13.83;;
22248;SDS011;67538;52.180;5.646;2024-02-21T08:49:35;36.50;;;13.10;;
22248;SDS011;67538;52.180;5.646;2024-02-21T08:52:02;26.90;;;12.77;;
22248;SDS011;67538;52.180;5.646;2024-02-21T08:54:30;29.23;;;13.43;;
22248;SDS011;67538;52.180;5.646;2024-02-21T08:56:57;31.87;;;12.90;;
22248;SDS011;67538;52.180;5.646;2024-02-21T08:59:24;26.47;;;12.60;;
22248;SDS011;67538;52.180;5.646;2024-02-21T09:01:54;31.47;;;12.80;;
22248;SDS011;67538;52.180;5.646;2024-02-21T09:04:21;32.67;;;12.50;;
22248;SDS011;67538;52.180;5.646;2024-02-21T09:06:48;26.23;;;12.60;;
22248;SDS011;67538;52.180;5.646;2024-02-21T09:09:15;29.67;;;13.13;;
22248;SDS011;67538;52.180;5.646;2024-02-21T09:11:42;22.60;;;12.87;;
22248;SDS011;67538;52.180;5.646;2024-02-21T09:14:09;29.43;;;13.03;;
22248;SDS011;67538;52.180;5.646;2024-02-21T09:16:37;28.27;;;12.23;;
22248;SDS011;67538;52.180;5.646;2024-02-21T09:19:05;28.07;;;11.90;;
22248;SDS011;67538;52.180;5.646;2024-02-21T09:21:35;28.50;;;11.87;;
22248;SDS011;67538;52.180;5.646;2024-02-21T09:24:03;27.73;;;12.13;;
22248;SDS011;67538;52.180;5.646;2024-02-21T09:26:31;24.23;;;12.00;;
22248;SDS011;67538;52.180;5.646;2024-02-21T09:28:58;30.17;;;12.70;;
22248;SDS011;67538;52.180;5.646;2024-02-21T09:31:25;33.70;;;13.37;;
22248;SDS011;67538;52.180;5.646;2024-02-21T09:33:52;25.80;;;12.20;;
22248;SDS011;67538;52.180;5.646;2024-02-21T09:36:21;29.30;;;12.10;;
22248;SDS011;67538;52.180;5.646;2024-02-21T09:38:48;22.43;;;10.80;;
22248;SDS011;67538;52.180;5.646;2024-02-21T09:41:15;24.60;;;11.67;;
22248;SDS011;67538;52.180;5.646;2024-02-21T09:43:43;32.30;;;11.57;;
22248;SDS011;67538;52.180;5.646;2024-02-21T09:46:13;25.93;;;11.53;;
22248;SDS011;67538;52.180;5.646;2024-02-21T09:48:48;22.37;;;10.87;;
22248;SDS011;67538;52.180;5.646;2024-02-21T09:51:28;24.27;;;11.27;;
22248;SDS011;67538;52.180;5.646;2024-02-21T09:53:58;31.23;;;11.23;;
22248;SDS011;67538;52.180;5.646;2024-02-21T09:56:28;22.17;;;10.80;;
22248;SDS011;67538;52.180;5.646;2024-02-21T09:58:55;21.20;;;9.87;;
22248;SDS011;67538;52.180;5.646;2024-02-21T10:01:23;23.30;;;10.57;;
22248;SDS011;67538;52.180;5.646;2024-02-21T10:03:50;23.70;;;11.20;;
22248;SDS011;67538;52.180;5.646;2024-02-21T10:06:18;23.47;;;9.83;;
22248;SDS011;67538;52.180;5.646;2024-02-21T10:08:52;24.93;;;9.93;;
22248;SDS011;67538;52.180;5.646;2024-02-21T10:11:22;23.80;;;10.07;;
22248;SDS011;67538;52.180;5.646;2024-02-21T10:13:50;24.10;;;9.57;;
22248;SDS011;67538;52.180;5.646;2024-02-21T10:16:17;25.20;;;10.00;;
22248;SDS011;67538;52.180;5.646;2024-02-21T10:18:44;18.50;;;9.60;;
22248;SDS011;67538;52.180;5.646;2024-02-21T10:21:11;17.07;;;8.90;;
22248;SDS011;67538;52.180;5.646;2024-02-21T10:23:44;20.93;;;9.90;;
22248;SDS011;67538;52.180;5.646;2024-02-21T10:26:14;22.53;;;9.43;;
22248;SDS011;67538;52.180;5.646;2024-02-21T10:28:42;14.87;;;8.73;;
22248;SDS011;67538;52.180;5.646;2024-02-21T10:31:11;21.17;;;9.43;;
22248;SDS011;67538;52.180;5.646;2024-02-21T10:33:53;18.50;;;9.20;;
22248;SDS011;67538;52.180;5.646;2024-02-21T10:36:20;17.23;;;8.27;;
22248;SDS011;67538;52.180;5.646;2024-02-21T10:38:48;21.10;;;9.43;;
22248;SDS011;67538;52.180;5.646;2024-02-21T10:41:16;19.20;;;8.80;;
22248;SDS011;67538;52.180;5.646;2024-02-21T10:43:46;14.83;;;7.47;;
22248;SDS011;67538;52.180;5.646;2024-02-21T10:46:18;18.37;;;7.67;;
22248;SDS011;67538;52.180;5.646;2024-02-21T10:48:46;20.27;;;8.13;;
22248;SDS011;67538;52.180;5.646;2024-02-21T10:51:15;14.77;;;7.73;;
22248;SDS011;67538;52.180;5.646;2024-02-21T10:53:44;16.23;;;7.73;;
22248;SDS011;67538;52.180;5.646;2024-02-21T10:56:21;17.63;;;7.40;;
22248;SDS011;67538;52.180;5.646;2024-02-21T10:58:52;11.57;;;6.60;;
22248;SDS011;67538;52.180;5.646;2024-02-21T11:01:20;13.33;;;7.40;;
22248;SDS011;67538;52.180;5.646;2024-02-21T11:03:48;11.17;;;7.03;;
22248;SDS011;67538;52.180;5.646;2024-02-21T11:06:18;11.87;;;7.37;;
22248;SDS011;67538;52.180;5.646;2024-02-21T11:08:47;11.23;;;6.40;;
22248;SDS011;67538;52.180;5.646;2024-02-21T11:11:26;12.07;;;6.13;;
22248;SDS011;67538;52.180;5.646;2024-02-21T11:14:03;10.97;;;6.53;;
22248;SDS011;67538;52.180;5.646;2024-02-21T11:16:34;12.97;;;7.13;;
22248;SDS011;67538;52.180;5.646;2024-02-21T11:19:04;10.50;;;7.03;;
22248;SDS011;67538;52.180;5.646;2024-02-21T11:21:35;11.77;;;6.77;;
22248;SDS011;67538;52.180;5.646;2024-02-21T11:24:02;13.93;;;7.63;;
22248;SDS011;67538;52.180;5.646;2024-02-21T11:26:32;14.13;;;7.80;;
22248;SDS011;67538;52.180;5.646;2024-02-21T11:28:59;12.63;;;8.00;;
22248;SDS011;67538;52.180;5.646;2024-02-21T11:31:37;14.53;;;8.20;;
22248;SDS011;67538;52.180;5.646;2024-02-21T11:34:08;14.40;;;8.47;;
22248;SDS011;67538;52.180;5.646;2024-02-21T11:36:35;13.20;;;8.67;;
22248;SDS011;67538;52.180;5.646;2024-02-21T11:39:12;17.63;;;8.60;;
22248;SDS011;67538;52.180;5.646;2024-02-21T11:41:40;14.83;;;9.63;;
22248;SDS011;67538;52.180;5.646;2024-02-21T11:44:07;13.27;;;9.17;;
22248;SDS011;67538;52.180;5.646;2024-02-21T11:46:34;20.30;;;10.07;;
22248;SDS011;67538;52.180;5.646;2024-02-21T11:49:02;15.50;;;9.23;;
22248;SDS011;67538;52.180;5.646;2024-02-21T11:51:29;17.77;;;10.07;;
22248;SDS011;67538;52.180;5.646;2024-02-21T11:53:56;16.97;;;9.97;;
22248;SDS011;67538;52.180;5.646;2024-02-21T11:56:23;15.10;;;9.93;;
22248;SDS011;67538;52.180;5.646;2024-02-21T11:58:52;22.13;;;10.30;;
22248;SDS011;67538;52.180;5.646;2024-02-21T12:01:19;19.63;;;10.60;;
22248;SDS011;67538;52.180;5.646;2024-02-21T12:03:46;23.67;;;10.87;;
22248;SDS011;67538;52.180;5.646;2024-02-21T12:06:15;15.47;;;10.50;;
22248;SDS011;67538;52.180;5.646;2024-02-21T12:08:46;16.30;;;10.40;;
22248;SDS011;67538;52.180;5.646;2024-02-21T12:11:18;17.77;;;10.20;;
22248;SDS011;67538;52.180;5.646;2024-02-21T12:13:46;17.47;;;9.97;;
22248;SDS011;67538;52.180;5.646;2024-02-21T12:16:16;20.03;;;10.63;;
22248;SDS011;67538;52.180;5.646;2024-02-21T12:18:44;15.67;;;10.10;;
22248;SDS011;67538;52.180;5.646;2024-02-21T12:21:11;15.33;;;9.70;;
22248;SDS011;67538;52.180;5.646;2024-02-21T12:23:38;21.37;;;10.47;;
22248;SDS011;67538;52.180;5.646;2024-02-21T12:26:05;15.73;;;8.33;;
22248;SDS011;67538;52.180;5.646;2024-02-21T12:28:33;23.10;;;9.00;;
22248;SDS011;67538;52.180;5.646;2024-02-21T12:31:00;13.17;;;8.97;;
22248;SDS011;67538;52.180;5.646;2024-02-21T12:33:30;17.50;;;9.63;;
22248;SDS011;67538;52.180;5.646;2024-02-21T12:35:58;18.10;;;8.20;;
22248;SDS011;67538;52.180;5.646;2024-02-21T12:38:25;17.67;;;8.50;;
22248;SDS011;67538;52.180;5.646;2024-02-21T12:40:52;16.27;;;8.57;;
22248;SDS011;67538;52.180;5.646;2024-02-21T12:43:19;14.83;;;8.43;;
22248;SDS011;67538;52.180;5.646;2024-02-21T12:45:47;17.93;;;7.40;;
22248;SDS011;67538;52.180;5.646;2024-02-21T12:48:14;17.57;;;8.13;;
22248;SDS011;67538;52.180;5.646;2024-02-21T12:50:47;12.60;;;7.23;;
22248;SDS011;67538;52.180;5.646;2024-02-21T12:53:16;18.73;;;8.87;;
22248;SDS011;67538;52.180;5.646;2024-02-21T12:55:44;13.17;;;7.70;;
22248;SDS011;67538;52.180;5.646;2024-02-21T12:58:11;14.40;;;7.27;;
22248;SDS011;67538;52.180;5.646;2024-02-21T13:00:39;13.83;;;7.00;;
22248;SDS011;67538;52.180;5.646;2024-02-21T13:03:06;14.27;;;7.33;;
22248;SDS011;67538;52.180;5.646;2024-02-21T13:05:34;13.07;;;6.83;;
22248;SDS011;67538;52.180;5.646;2024-02-21T13:08:03;14.27;;;6.83;;
22248;SDS011;67538;52.180;5.646;2024-02-21T13:10:31;16.03;;;7.00;;
22248;SDS011;67538;52.180;5.646;2024-02-21T13:12:59;13.60;;;6.37;;
22248;SDS011;67538;52.180;5.646;2024-02-21T13:15:26;13.73;;;6.70;;
22248;SDS011;67538;52.180;5.646;2024-02-21T13:17:54;15.50;;;7.07;;
22248;SDS011;67538;52.180;5.646;2024-02-21T13:20:22;18.93;;;6.40;;
22248;SDS011;67538;52.180;5.646;2024-02-21T13:22:49;15.27;;;6.77;;
22248;SDS011;67538;52.180;5.646;2024-02-21T13:25:18;14.87;;;6.53;;
22248;SDS011;67538;52.180;5.646;2024-02-21T13:27:46;13.13;;;6.17;;
22248;SDS011;67538;52.180;5.646;2024-02-21T13:30:13;14.10;;;6.63;;
22248;SDS011;67538;52.180;5.646;2024-02-21T13:32:42;12.83;;;6.23;;
22248;SDS011;67538;52.180;5.646;2024-02-21T13:35:11;15.97;;;6.40;;
22248;SDS011;67538;52.180;5.646;2024-02-21T13:37:38;12.83;;;7.30;;
22248;SDS011;67538;52.180;5.646;2024-02-21T13:40:06;16.00;;;6.77;;
22248;SDS011;67538;52.180;5.646;2024-02-21T13:42:36;12.60;;;6.13;;
22248;SDS011;67538;52.180;5.646;2024-02-21T13:45:04;14.33;;;6.07;;
22248;SDS011;67538;52.180;5.646;2024-02-21T13:47:32;18.03;;;6.53;;
22248;SDS011;67538;52.180;5.646;2024-02-21T13:50:01;12.73;;;6.37;;
22248;SDS011;67538;52.180;5.646;2024-02-21T13:52:30;14.77;;;6.13;;
22248;SDS011;67538;52.180;5.646;2024-02-21T13:54:58;12.17;;;5.47;;
22248;SDS011;67538;52.180;5.646;2024-02-21T13:57:25;13.57;;;5.87;;
22248;SDS011;67538;52.180;5.646;2024-02-21T13:59:54;21.87;;;6.40;;
22248;SDS011;67538;52.180;5.646;2024-02-21T14:02:21;17.97;;;6.50;;
22248;SDS011;67538;52.180;5.646;2024-02-21T14:04:48;17.50;;;6.40;;
22248;SDS011;67538;52.180;5.646;2024-02-21T14:07:15;20.23;;;6.47;;
22248;SDS011;67538;52.180;5.646;2024-02-21T14:09:42;13.40;;;5.83;;
22248;SDS011;67538;52.180;5.646;2024-02-21T14:12:09;16.70;;;6.80;;
22248;SDS011;67538;52.180;5.646;2024-02-21T14:14:37;13.10;;;5.83;;
22248;SDS011;67538;52.180;5.646;2024-02-21T14:17:05;16.67;;;5.90;;
22248;SDS011;67538;52.180;5.646;2024-02-21T14:19:32;11.67;;;5.43;;
22248;SDS011;67538;52.180;5.646;2024-02-21T14:21:59;14.67;;;5.37;;
22248;SDS011;67538;52.180;5.646;2024-02-21T14:24:27;14.37;;;6.17;;
22248;SDS011;67538;52.180;5.646;2024-02-21T14:26:54;12.90;;;5.57;;
22248;SDS011;67538;52.180;5.646;2024-02-21T14:29:21;12.63;;;5.67;;